Česky Dansk Deutsch English Espańol Suomi Français Magyar Italiano Nederlands norsk Polski Portuguęs svenska Türkçe

 

Het Weer

Spadeadam (Groot Britanië)

03:50, 16 augustus 2016 (GMT)

NWNNE
WE
SWSSE
Home            
Spadeadam Carlisle Newcastle Boulmer Tees-Side Leeming Edinburgh Airport Walney Island Topcliffe Royal Air Force Base Disforth Prestwick Airport Linton-On-Ouse Leeds And Bradford Blackpool Airport Glasgow Airport Leuchars West Freugh Dundee / Riverside Church Fenton Perth / Scone Woodvale Isle Of Man / Ronaldsway Airport Leconfield

Om een weerknop op uw website of weblog te plaatsen, copieer onderstaande code en plak die in uw pagina. In het eerste vakje staat HTML-code, in het tweede vakje UBB-code.


Add to Google

Details

Wind speed:2 bf, 6 kn, 3.1 m/s, 6.9 miles/h, 11.1 km/h
Wind direction:NNE, 030°
Láthatóság általában:Nagyobb, mint 10000 m, 10 km, 32800 ft, 6.2 miles
Hőmérséklet:8°C, 46°F
Harmatpont:8°C, 46°F
Légköri nyomás:1021 hPa, 765.8 mmHg, 30.15 inHg, 1.008 atm
Relatív páratartalom:100.0 %
METAR:EGOM 160350Z AUTO 03006KT 9999 NCD 08/08 Q1021

Snelkoppelingen

Actuele weersinformatie van de hele wereld. Voeg locaties toe met het plus (+) symbool. Deze snelkoppelingen kunnen worden toegevoegd aan Google.

Lid van de Technetium groep

website free tracking
StatCounter NetStat W3C Validator

03-10-2022 06:07:08
astro.technetium.be money.technetium.be phote.technetium.be tafeltennistafel.technetium.be www.ligfiets.net